sensor_id;sensor_type;location;lat;lon;timestamp;temperature;humidity
2767;DHT22;1391;46.74287300;11.63683300;2023-05-29T00:00:23;13.60;99.90
2767;DHT22;1391;46.74287300;11.63683300;2023-05-29T00:02:51;13.40;99.90
2767;DHT22;1391;46.74287300;11.63683300;2023-05-29T00:05:19;13.40;99.90
2767;DHT22;1391;46.74287300;11.63683300;2023-05-29T00:07:46;13.40;99.90
2767;DHT22;1391;46.74287300;11.63683300;2023-05-29T00:10:16;13.40;99.90
2767;DHT22;1391;46.74287300;11.63683300;2023-05-29T00:12:43;13.40;99.90
2767;DHT22;1391;46.74287300;11.63683300;2023-05-29T00:15:10;13.40;99.90
2767;DHT22;1391;46.74287300;11.63683300;2023-05-29T00:17:38;13.40;99.90
2767;DHT22;1391;46.74287300;11.63683300;2023-05-29T00:20:07;13.40;99.90
2767;DHT22;1391;46.74287300;11.63683300;2023-05-29T00:22:37;13.40;99.90
2767;DHT22;1391;46.74287300;11.63683300;2023-05-29T00:25:05;13.40;99.90
2767;DHT22;1391;46.74287300;11.63683300;2023-05-29T00:27:34;13.40;99.90
2767;DHT22;1391;46.74287300;11.63683300;2023-05-29T00:30:02;13.40;99.90
2767;DHT22;1391;46.74287300;11.63683300;2023-05-29T00:32:30;13.40;99.90
2767;DHT22;1391;46.74287300;11.63683300;2023-05-29T00:34:57;13.10;99.90
2767;DHT22;1391;46.74287300;11.63683300;2023-05-29T00:37:24;13.00;99.90
2767;DHT22;1391;46.74287300;11.63683300;2023-05-29T00:39:53;13.40;99.90
2767;DHT22;1391;46.74287300;11.63683300;2023-05-29T00:42:20;13.20;99.90
2767;DHT22;1391;46.74287300;11.63683300;2023-05-29T00:44:48;13.40;99.90
2767;DHT22;1391;46.74287300;11.63683300;2023-05-29T00:47:15;13.50;99.90
2767;DHT22;1391;46.74287300;11.63683300;2023-05-29T00:49:43;13.30;99.90
2767;DHT22;1391;46.74287300;11.63683300;2023-05-29T00:52:10;12.80;99.90
2767;DHT22;1391;46.74287300;11.63683300;2023-05-29T00:54:38;13.20;99.90
2767;DHT22;1391;46.74287300;11.63683300;2023-05-29T00:57:07;13.00;99.90
2767;DHT22;1391;46.74287300;11.63683300;2023-05-29T00:59:35;13.40;99.90
2767;DHT22;1391;46.74287300;11.63683300;2023-05-29T01:02:02;13.40;99.90
2767;DHT22;1391;46.74287300;11.63683300;2023-05-29T01:04:30;13.50;99.90
2767;DHT22;1391;46.74287300;11.63683300;2023-05-29T01:07:00;13.00;99.90
2767;DHT22;1391;46.74287300;11.63683300;2023-05-29T01:09:28;12.80;99.90
2767;DHT22;1391;46.74287300;11.63683300;2023-05-29T01:11:59;13.20;99.90
2767;DHT22;1391;46.74287300;11.63683300;2023-05-29T01:14:59;13.30;99.90
2767;DHT22;1391;46.74287300;11.63683300;2023-05-29T01:18:07;13.30;99.90
2767;DHT22;1391;46.74287300;11.63683300;2023-05-29T01:20:42;13.20;99.90
2767;DHT22;1391;46.74287300;11.63683300;2023-05-29T01:23:26;13.40;99.90
2767;DHT22;1391;46.74287300;11.63683300;2023-05-29T01:26:18;13.50;99.90
2767;DHT22;1391;46.74287300;11.63683300;2023-05-29T01:28:55;13.30;99.90
2767;DHT22;1391;46.74287300;11.63683300;2023-05-29T01:31:26;13.30;99.90
2767;DHT22;1391;46.74287300;11.63683300;2023-05-29T01:33:54;13.30;99.90
2767;DHT22;1391;46.74287300;11.63683300;2023-05-29T01:36:22;13.30;99.90
2767;DHT22;1391;46.74287300;11.63683300;2023-05-29T01:38:51;13.30;99.90
2767;DHT22;1391;46.74287300;11.63683300;2023-05-29T01:41:19;13.30;99.90
2767;DHT22;1391;46.74287300;11.63683300;2023-05-29T01:43:48;13.30;99.90
2767;DHT22;1391;46.74287300;11.63683300;2023-05-29T01:46:18;13.30;99.90
2767;DHT22;1391;46.74287300;11.63683300;2023-05-29T01:48:46;13.30;99.90
2767;DHT22;1391;46.74287300;11.63683300;2023-05-29T01:51:13;13.30;99.90
2767;DHT22;1391;46.74287300;11.63683300;2023-05-29T01:53:41;13.30;99.90
2767;DHT22;1391;46.74287300;11.63683300;2023-05-29T01:56:10;13.30;99.90
2767;DHT22;1391;46.74287300;11.63683300;2023-05-29T01:58:38;13.30;99.90
2767;DHT22;1391;46.74287300;11.63683300;2023-05-29T02:01:06;13.30;99.90
2767;DHT22;1391;46.74287300;11.63683300;2023-05-29T02:03:34;13.20;99.90
2767;DHT22;1391;46.74287300;11.63683300;2023-05-29T02:06:02;13.60;99.90
2767;DHT22;1391;46.74287300;11.63683300;2023-05-29T02:08:29;13.40;99.90
2767;DHT22;1391;46.74287300;11.63683300;2023-05-29T02:10:56;13.50;99.90
2767;DHT22;1391;46.74287300;11.63683300;2023-05-29T02:13:23;13.40;99.90
2767;DHT22;1391;46.74287300;11.63683300;2023-05-29T02:15:51;13.50;99.90
2767;DHT22;1391;46.74287300;11.63683300;2023-05-29T02:18:18;12.90;99.90
2767;DHT22;1391;46.74287300;11.63683300;2023-05-29T02:20:47;13.00;99.90
2767;DHT22;1391;46.74287300;11.63683300;2023-05-29T02:23:14;13.10;99.90
2767;DHT22;1391;46.74287300;11.63683300;2023-05-29T02:25:42;13.00;99.90
2767;DHT22;1391;46.74287300;11.63683300;2023-05-29T02:28:09;12.70;99.90
2767;DHT22;1391;46.74287300;11.63683300;2023-05-29T02:30:36;13.20;99.90
2767;DHT22;1391;46.74287300;11.63683300;2023-05-29T02:33:04;13.50;99.90
2767;DHT22;1391;46.74287300;11.63683300;2023-05-29T02:35:32;13.30;99.90
2767;DHT22;1391;46.74287300;11.63683300;2023-05-29T02:38:00;13.30;99.90
2767;DHT22;1391;46.74287300;11.63683300;2023-05-29T02:40:28;12.90;99.90
2767;DHT22;1391;46.74287300;11.63683300;2023-05-29T02:42:55;13.00;99.90
2767;DHT22;1391;46.74287300;11.63683300;2023-05-29T02:45:22;13.10;99.90
2767;DHT22;1391;46.74287300;11.63683300;2023-05-29T02:47:49;13.00;99.90
2767;DHT22;1391;46.74287300;11.63683300;2023-05-29T02:50:17;13.00;99.90
2767;DHT22;1391;46.74287300;11.63683300;2023-05-29T02:52:44;13.10;99.90
2767;DHT22;1391;46.74287300;11.63683300;2023-05-29T02:55:12;12.90;99.90
2767;DHT22;1391;46.74287300;11.63683300;2023-05-29T02:57:40;13.00;99.90
2767;DHT22;1391;46.74287300;11.63683300;2023-05-29T03:00:08;12.80;99.90
2767;DHT22;1391;46.74287300;11.63683300;2023-05-29T03:02:37;12.80;99.90
2767;DHT22;1391;46.74287300;11.63683300;2023-05-29T03:05:04;12.80;99.90
2767;DHT22;1391;46.74287300;11.63683300;2023-05-29T03:07:32;12.80;99.90
2767;DHT22;1391;46.74287300;11.63683300;2023-05-29T03:09:59;12.80;99.90
2767;DHT22;1391;46.74287300;11.63683300;2023-05-29T03:12:28;12.80;99.90
2767;DHT22;1391;46.74287300;11.63683300;2023-05-29T03:14:55;12.90;99.90
2767;DHT22;1391;46.74287300;11.63683300;2023-05-29T03:17:22;13.10;99.90
2767;DHT22;1391;46.74287300;11.63683300;2023-05-29T03:19:50;13.00;99.90
2767;DHT22;1391;46.74287300;11.63683300;2023-05-29T03:22:17;12.80;99.90
2767;DHT22;1391;46.74287300;11.63683300;2023-05-29T03:24:44;12.90;99.90
2767;DHT22;1391;46.74287300;11.63683300;2023-05-29T03:27:12;13.00;99.90
2767;DHT22;1391;46.74287300;11.63683300;2023-05-29T03:29:41;13.10;99.90
2767;DHT22;1391;46.74287300;11.63683300;2023-05-29T03:32:08;13.00;99.90
2767;DHT22;1391;46.74287300;11.63683300;2023-05-29T03:34:36;13.20;99.90
2767;DHT22;1391;46.74287300;11.63683300;2023-05-29T03:37:03;13.10;99.90
2767;DHT22;1391;46.74287300;11.63683300;2023-05-29T03:39:31;12.90;99.90
2767;DHT22;1391;46.74287300;11.63683300;2023-05-29T03:41:58;12.40;99.90
2767;DHT22;1391;46.74287300;11.63683300;2023-05-29T03:44:26;12.50;99.90
2767;DHT22;1391;46.74287300;11.63683300;2023-05-29T03:46:54;12.50;99.90
2767;DHT22;1391;46.74287300;11.63683300;2023-05-29T03:49:21;12.50;99.90
2767;DHT22;1391;46.74287300;11.63683300;2023-05-29T03:51:49;12.50;99.90
2767;DHT22;1391;46.74287300;11.63683300;2023-05-29T03:54:16;12.50;99.90
2767;DHT22;1391;46.74287300;11.63683300;2023-05-29T03:56:44;12.30;99.90
2767;DHT22;1391;46.74287300;11.63683300;2023-05-29T03:59:11;12.50;99.90
2767;DHT22;1391;46.74287300;11.63683300;2023-05-29T04:01:38;12.50;99.90
2767;DHT22;1391;46.74287300;11.63683300;2023-05-29T04:04:07;12.40;99.90
2767;DHT22;1391;46.74287300;11.63683300;2023-05-29T04:06:34;12.50;99.90
2767;DHT22;1391;46.74287300;11.63683300;2023-05-29T04:09:04;12.40;99.90
2767;DHT22;1391;46.74287300;11.63683300;2023-05-29T04:11:32;12.50;99.90
2767;DHT22;1391;46.74287300;11.63683300;2023-05-29T04:14:01;12.50;99.90
2767;DHT22;1391;46.74287300;11.63683300;2023-05-29T04:16:28;12.50;99.90
2767;DHT22;1391;46.74287300;11.63683300;2023-05-29T04:18:55;12.40;99.90
2767;DHT22;1391;46.74287300;11.63683300;2023-05-29T04:21:24;12.50;99.90
2767;DHT22;1391;46.74287300;11.63683300;2023-05-29T04:23:52;12.60;99.90
2767;DHT22;1391;46.74287300;11.63683300;2023-05-29T04:26:21;12.50;99.90
2767;DHT22;1391;46.74287300;11.63683300;2023-05-29T04:28:52;12.40;99.90
2767;DHT22;1391;46.74287300;11.63683300;2023-05-29T04:31:23;12.50;99.90
2767;DHT22;1391;46.74287300;11.63683300;2023-05-29T04:33:52;12.30;99.90
2767;DHT22;1391;46.74287300;11.63683300;2023-05-29T04:36:24;12.40;99.90
2767;DHT22;1391;46.74287300;11.63683300;2023-05-29T04:38:53;12.50;99.90
2767;DHT22;1391;46.74287300;11.63683300;2023-05-29T04:41:20;12.30;99.90
2767;DHT22;1391;46.74287300;11.63683300;2023-05-29T04:43:49;12.50;99.90
2767;DHT22;1391;46.74287300;11.63683300;2023-05-29T04:46:17;13.00;99.90
2767;DHT22;1391;46.74287300;11.63683300;2023-05-29T04:48:45;13.00;99.90
2767;DHT22;1391;46.74287300;11.63683300;2023-05-29T04:51:13;13.10;99.90
2767;DHT22;1391;46.74287300;11.63683300;2023-05-29T04:53:43;13.00;99.90
2767;DHT22;1391;46.74287300;11.63683300;2023-05-29T04:56:12;13.00;99.90
2767;DHT22;1391;46.74287300;11.63683300;2023-05-29T04:58:39;12.90;99.90
2767;DHT22;1391;46.74287300;11.63683300;2023-05-29T05:01:07;13.10;99.90
2767;DHT22;1391;46.74287300;11.63683300;2023-05-29T05:03:35;13.10;99.90
2767;DHT22;1391;46.74287300;11.63683300;2023-05-29T05:06:02;12.90;99.90
2767;DHT22;1391;46.74287300;11.63683300;2023-05-29T05:08:32;13.40;99.90
2767;DHT22;1391;46.74287300;11.63683300;2023-05-29T05:11:00;13.50;99.90
2767;DHT22;1391;46.74287300;11.63683300;2023-05-29T05:13:28;13.30;99.90
2767;DHT22;1391;46.74287300;11.63683300;2023-05-29T05:15:55;13.60;99.90
2767;DHT22;1391;46.74287300;11.63683300;2023-05-29T05:18:23;13.50;99.90
2767;DHT22;1391;46.74287300;11.63683300;2023-05-29T05:20:50;13.70;99.90
2767;DHT22;1391;46.74287300;11.63683300;2023-05-29T05:23:17;13.70;99.90
2767;DHT22;1391;46.74287300;11.63683300;2023-05-29T05:25:44;13.70;99.90
2767;DHT22;1391;46.74287300;11.63683300;2023-05-29T05:28:13;13.70;99.90
2767;DHT22;1391;46.74287300;11.63683300;2023-05-29T05:30:40;13.70;99.90
2767;DHT22;1391;46.74287300;11.63683300;2023-05-29T05:33:08;14.00;99.90
2767;DHT22;1391;46.74287300;11.63683300;2023-05-29T05:35:35;14.00;99.90
2767;DHT22;1391;46.74287300;11.63683300;2023-05-29T05:38:02;14.00;99.90
2767;DHT22;1391;46.74287300;11.63683300;2023-05-29T05:40:30;13.90;99.90
2767;DHT22;1391;46.74287300;11.63683300;2023-05-29T05:42:57;13.90;99.90
2767;DHT22;1391;46.74287300;11.63683300;2023-05-29T05:45:26;14.00;99.90
2767;DHT22;1391;46.74287300;11.63683300;2023-05-29T05:47:53;14.00;99.90
2767;DHT22;1391;46.74287300;11.63683300;2023-05-29T05:50:21;14.00;99.90
2767;DHT22;1391;46.74287300;11.63683300;2023-05-29T05:52:50;14.00;99.90
2767;DHT22;1391;46.74287300;11.63683300;2023-05-29T05:55:17;14.00;99.90
2767;DHT22;1391;46.74287300;11.63683300;2023-05-29T05:57:44;13.90;99.90
2767;DHT22;1391;46.74287300;11.63683300;2023-05-29T06:00:12;13.90;99.90
2767;DHT22;1391;46.74287300;11.63683300;2023-05-29T06:02:42;14.00;99.90
2767;DHT22;1391;46.74287300;11.63683300;2023-05-29T06:05:10;14.00;99.90
2767;DHT22;1391;46.74287300;11.63683300;2023-05-29T06:07:38;14.30;99.90
2767;DHT22;1391;46.74287300;11.63683300;2023-05-29T06:10:06;14.60;99.90
2767;DHT22;1391;46.74287300;11.63683300;2023-05-29T06:12:34;14.30;99.90
2767;DHT22;1391;46.74287300;11.63683300;2023-05-29T06:15:02;14.60;99.90
2767;DHT22;1391;46.74287300;11.63683300;2023-05-29T06:17:30;14.40;99.90
2767;DHT22;1391;46.74287300;11.63683300;2023-05-29T06:19:59;14.50;99.90
2767;DHT22;1391;46.74287300;11.63683300;2023-05-29T06:22:26;14.60;99.90
2767;DHT22;1391;46.74287300;11.63683300;2023-05-29T06:24:53;14.80;99.90
2767;DHT22;1391;46.74287300;11.63683300;2023-05-29T06:27:21;15.00;99.90
2767;DHT22;1391;46.74287300;11.63683300;2023-05-29T06:29:51;14.90;97.80
2767;DHT22;1391;46.74287300;11.63683300;2023-05-29T06:32:19;15.00;99.10
2767;DHT22;1391;46.74287300;11.63683300;2023-05-29T06:34:47;15.00;97.80
2767;DHT22;1391;46.74287300;11.63683300;2023-05-29T06:37:16;15.30;99.30
2767;DHT22;1391;46.74287300;11.63683300;2023-05-29T06:39:44;15.40;95.80
2767;DHT22;1391;46.74287300;11.63683300;2023-05-29T06:42:12;15.40;95.80
2767;DHT22;1391;46.74287300;11.63683300;2023-05-29T06:44:39;15.80;97.20
2767;DHT22;1391;46.74287300;11.63683300;2023-05-29T06:47:07;16.30;94.10
2767;DHT22;1391;46.74287300;11.63683300;2023-05-29T06:49:34;16.40;93.50
2767;DHT22;1391;46.74287300;11.63683300;2023-05-29T06:52:01;16.50;92.50
2767;DHT22;1391;46.74287300;11.63683300;2023-05-29T06:54:30;16.50;91.50
2767;DHT22;1391;46.74287300;11.63683300;2023-05-29T06:56:57;16.70;91.80
2767;DHT22;1391;46.74287300;11.63683300;2023-05-29T06:59:24;17.00;90.40
2767;DHT22;1391;46.74287300;11.63683300;2023-05-29T07:01:52;17.00;89.00
2767;DHT22;1391;46.74287300;11.63683300;2023-05-29T07:04:19;16.90;86.00
2767;DHT22;1391;46.74287300;11.63683300;2023-05-29T07:06:46;17.40;87.90
2767;DHT22;1391;46.74287300;11.63683300;2023-05-29T07:09:14;17.30;81.50
2767;DHT22;1391;46.74287300;11.63683300;2023-05-29T07:11:42;17.20;85.70
2767;DHT22;1391;46.74287300;11.63683300;2023-05-29T07:14:10;18.00;84.30
2767;DHT22;1391;46.74287300;11.63683300;2023-05-29T07:16:38;18.00;86.30
2767;DHT22;1391;46.74287300;11.63683300;2023-05-29T07:19:05;18.10;86.80
2767;DHT22;1391;46.74287300;11.63683300;2023-05-29T07:21:32;17.90;75.40
2767;DHT22;1391;46.74287300;11.63683300;2023-05-29T07:24:01;18.00;74.50
2767;DHT22;1391;46.74287300;11.63683300;2023-05-29T07:26:28;18.00;79.80
2767;DHT22;1391;46.74287300;11.63683300;2023-05-29T07:28:58;18.10;67.10
2767;DHT22;1391;46.74287300;11.63683300;2023-05-29T07:31:26;18.00;71.90
2767;DHT22;1391;46.74287300;11.63683300;2023-05-29T07:33:54;18.10;76.00
2767;DHT22;1391;46.74287300;11.63683300;2023-05-29T07:36:21;18.60;69.90
2767;DHT22;1391;46.74287300;11.63683300;2023-05-29T07:38:49;18.70;66.40
2767;DHT22;1391;46.74287300;11.63683300;2023-05-29T07:41:16;19.00;64.90
2767;DHT22;1391;46.74287300;11.63683300;2023-05-29T07:43:44;19.50;67.80
2767;DHT22;1391;46.74287300;11.63683300;2023-05-29T07:46:17;19.40;64.70
2767;DHT22;1391;46.74287300;11.63683300;2023-05-29T07:48:45;18.80;65.40
2767;DHT22;1391;46.74287300;11.63683300;2023-05-29T07:51:12;18.70;57.60
2767;DHT22;1391;46.74287300;11.63683300;2023-05-29T07:53:40;19.20;59.40
2767;DHT22;1391;46.74287300;11.63683300;2023-05-29T07:56:07;19.50;61.20
2767;DHT22;1391;46.74287300;11.63683300;2023-05-29T07:58:35;20.00;59.00
2767;DHT22;1391;46.74287300;11.63683300;2023-05-29T08:01:03;19.60;50.50
2767;DHT22;1391;46.74287300;11.63683300;2023-05-29T08:03:32;20.00;53.40
2767;DHT22;1391;46.74287300;11.63683300;2023-05-29T08:06:00;21.00;57.20
2767;DHT22;1391;46.74287300;11.63683300;2023-05-29T08:08:28;21.00;52.90
2767;DHT22;1391;46.74287300;11.63683300;2023-05-29T08:10:57;20.90;52.10
2767;DHT22;1391;46.74287300;11.63683300;2023-05-29T08:13:24;20.90;43.70
2767;DHT22;1391;46.74287300;11.63683300;2023-05-29T08:15:52;20.30;44.90
2767;DHT22;1391;46.74287300;11.63683300;2023-05-29T08:18:20;20.80;55.30
2767;DHT22;1391;46.74287300;11.63683300;2023-05-29T08:20:49;21.10;54.80
2767;DHT22;1391;46.74287300;11.63683300;2023-05-29T08:23:16;21.00;45.80
2767;DHT22;1391;46.74287300;11.63683300;2023-05-29T08:25:43;20.40;43.20
2767;DHT22;1391;46.74287300;11.63683300;2023-05-29T08:28:12;19.80;40.30
2767;DHT22;1391;46.74287300;11.63683300;2023-05-29T08:30:39;20.30;48.40
2767;DHT22;1391;46.74287300;11.63683300;2023-05-29T08:33:06;20.10;55.10
2767;DHT22;1391;46.74287300;11.63683300;2023-05-29T08:35:34;21.00;47.00
2767;DHT22;1391;46.74287300;11.63683300;2023-05-29T08:38:03;20.90;43.50
2767;DHT22;1391;46.74287300;11.63683300;2023-05-29T08:40:30;21.10;45.00
2767;DHT22;1391;46.74287300;11.63683300;2023-05-29T08:43:02;21.10;48.20
2767;DHT22;1391;46.74287300;11.63683300;2023-05-29T08:45:33;22.20;63.10
2767;DHT22;1391;46.74287300;11.63683300;2023-05-29T08:48:01;22.20;47.10
2767;DHT22;1391;46.74287300;11.63683300;2023-05-29T08:50:31;22.00;40.70
2767;DHT22;1391;46.74287300;11.63683300;2023-05-29T08:53:00;21.20;38.30
2767;DHT22;1391;46.74287300;11.63683300;2023-05-29T08:55:29;21.10;39.90
2767;DHT22;1391;46.74287300;11.63683300;2023-05-29T08:57:56;21.50;36.10
2767;DHT22;1391;46.74287300;11.63683300;2023-05-29T09:00:24;21.10;38.50
2767;DHT22;1391;46.74287300;11.63683300;2023-05-29T09:02:54;20.90;35.20
2767;DHT22;1391;46.74287300;11.63683300;2023-05-29T09:05:22;21.00;39.70
2767;DHT22;1391;46.74287300;11.63683300;2023-05-29T09:07:49;21.30;40.20
2767;DHT22;1391;46.74287300;11.63683300;2023-05-29T09:10:17;21.80;38.40
2767;DHT22;1391;46.74287300;11.63683300;2023-05-29T09:12:46;21.80;35.40
2767;DHT22;1391;46.74287300;11.63683300;2023-05-29T09:15:19;22.10;42.90
2767;DHT22;1391;46.74287300;11.63683300;2023-05-29T09:17:52;22.90;35.50
2767;DHT22;1391;46.74287300;11.63683300;2023-05-29T09:20:21;22.10;33.80
2767;DHT22;1391;46.74287300;11.63683300;2023-05-29T09:22:54;22.20;34.70
2767;DHT22;1391;46.74287300;11.63683300;2023-05-29T09:25:24;22.30;30.20
2767;DHT22;1391;46.74287300;11.63683300;2023-05-29T09:27:55;22.80;28.50
2767;DHT22;1391;46.74287300;11.63683300;2023-05-29T09:30:37;22.80;37.40
2767;DHT22;1391;46.74287300;11.63683300;2023-05-29T09:33:07;23.60;30.50
2767;DHT22;1391;46.74287300;11.63683300;2023-05-29T09:35:35;23.70;28.10
2767;DHT22;1391;46.74287300;11.63683300;2023-05-29T09:38:04;23.20;28.60
2767;DHT22;1391;46.74287300;11.63683300;2023-05-29T09:40:34;23.70;45.00
2767;DHT22;1391;46.74287300;11.63683300;2023-05-29T09:43:04;23.20;28.90
2767;DHT22;1391;46.74287300;11.63683300;2023-05-29T09:45:36;23.60;28.40
2767;DHT22;1391;46.74287300;11.63683300;2023-05-29T09:48:05;23.10;26.20
2767;DHT22;1391;46.74287300;11.63683300;2023-05-29T09:50:35;23.00;29.20
2767;DHT22;1391;46.74287300;11.63683300;2023-05-29T09:53:02;23.10;28.00
2767;DHT22;1391;46.74287300;11.63683300;2023-05-29T09:55:33;23.80;27.10
2767;DHT22;1391;46.74287300;11.63683300;2023-05-29T09:58:03;23.20;28.00
2767;DHT22;1391;46.74287300;11.63683300;2023-05-29T10:00:32;23.30;27.70
2767;DHT22;1391;46.74287300;11.63683300;2023-05-29T10:03:00;23.80;23.90
2767;DHT22;1391;46.74287300;11.63683300;2023-05-29T10:05:27;23.00;23.70
2767;DHT22;1391;46.74287300;11.63683300;2023-05-29T10:07:54;23.20;26.60
2767;DHT22;1391;46.74287300;11.63683300;2023-05-29T10:10:24;23.40;26.90
2767;DHT22;1391;46.74287300;11.63683300;2023-05-29T10:12:53;24.00;22.70
2767;DHT22;1391;46.74287300;11.63683300;2023-05-29T10:15:24;24.00;23.60
2767;DHT22;1391;46.74287300;11.63683300;2023-05-29T10:18:01;23.80;20.00
2767;DHT22;1391;46.74287300;11.63683300;2023-05-29T10:20:31;23.80;17.50
2767;DHT22;1391;46.74287300;11.63683300;2023-05-29T10:23:01;23.60;20.50
2767;DHT22;1391;46.74287300;11.63683300;2023-05-29T10:25:32;23.80;20.90
2767;DHT22;1391;46.74287300;11.63683300;2023-05-29T10:28:00;23.60;21.20
2767;DHT22;1391;46.74287300;11.63683300;2023-05-29T10:30:34;23.80;20.90
2767;DHT22;1391;46.74287300;11.63683300;2023-05-29T10:33:14;23.60;20.70
2767;DHT22;1391;46.74287300;11.63683300;2023-05-29T10:36:04;24.40;19.80
2767;DHT22;1391;46.74287300;11.63683300;2023-05-29T10:38:34;24.30;17.70
2767;DHT22;1391;46.74287300;11.63683300;2023-05-29T10:41:29;24.50;22.20
2767;DHT22;1391;46.74287300;11.63683300;2023-05-29T10:43:59;24.50;17.70
2767;DHT22;1391;46.74287300;11.63683300;2023-05-29T10:47:07;24.40;18.50
2767;DHT22;1391;46.74287300;11.63683300;2023-05-29T10:49:38;24.60;19.70
2767;DHT22;1391;46.74287300;11.63683300;2023-05-29T10:52:05;24.70;17.50
2767;DHT22;1391;46.74287300;11.63683300;2023-05-29T10:54:49;24.80;18.40
2767;DHT22;1391;46.74287300;11.63683300;2023-05-29T10:57:21;24.60;16.20
2767;DHT22;1391;46.74287300;11.63683300;2023-05-29T10:59:59;25.60;21.70
2767;DHT22;1391;46.74287300;11.63683300;2023-05-29T11:02:35;25.70;15.00
2767;DHT22;1391;46.74287300;11.63683300;2023-05-29T11:05:18;26.00;18.50
2767;DHT22;1391;46.74287300;11.63683300;2023-05-29T11:07:57;25.40;13.60
2767;DHT22;1391;46.74287300;11.63683300;2023-05-29T11:10:45;25.70;17.10
2767;DHT22;1391;46.74287300;11.63683300;2023-05-29T11:13:25;25.40;11.70
2767;DHT22;1391;46.74287300;11.63683300;2023-05-29T11:16:09;24.70;18.20
2767;DHT22;1391;46.74287300;11.63683300;2023-05-29T11:18:41;24.40;15.70
2767;DHT22;1391;46.74287300;11.63683300;2023-05-29T11:21:24;24.40;17.90
2767;DHT22;1391;46.74287300;11.63683300;2023-05-29T11:23:58;23.70;17.20
2767;DHT22;1391;46.74287300;11.63683300;2023-05-29T11:26:28;23.80;18.10
2767;DHT22;1391;46.74287300;11.63683300;2023-05-29T11:28:58;24.20;14.30
2767;DHT22;1391;46.74287300;11.63683300;2023-05-29T11:31:27;23.70;15.80
2767;DHT22;1391;46.74287300;11.63683300;2023-05-29T11:33:59;24.70;26.20
2767;DHT22;1391;46.74287300;11.63683300;2023-05-29T11:36:30;24.50;20.10
2767;DHT22;1391;46.74287300;11.63683300;2023-05-29T11:38:58;24.60;17.70
2767;DHT22;1391;46.74287300;11.63683300;2023-05-29T11:41:26;24.70;16.00
2767;DHT22;1391;46.74287300;11.63683300;2023-05-29T11:43:59;25.50;19.60
2767;DHT22;1391;46.74287300;11.63683300;2023-05-29T11:46:28;25.30;11.20
2767;DHT22;1391;46.74287300;11.63683300;2023-05-29T11:48:59;25.30;9.60
2767;DHT22;1391;46.74287300;11.63683300;2023-05-29T11:51:27;24.60;10.60
2767;DHT22;1391;46.74287300;11.63683300;2023-05-29T11:53:55;24.60;13.60
2767;DHT22;1391;46.74287300;11.63683300;2023-05-29T11:56:25;25.30;14.30
2767;DHT22;1391;46.74287300;11.63683300;2023-05-29T11:58:54;25.40;12.50
2767;DHT22;1391;46.74287300;11.63683300;2023-05-29T12:01:25;25.50;14.30
2767;DHT22;1391;46.74287300;11.63683300;2023-05-29T12:03:53;25.40;10.20
2767;DHT22;1391;46.74287300;11.63683300;2023-05-29T12:06:35;25.50;12.30
2767;DHT22;1391;46.74287300;11.63683300;2023-05-29T12:09:04;25.60;10.50
2767;DHT22;1391;46.74287300;11.63683300;2023-05-29T12:11:31;26.50;13.80
2767;DHT22;1391;46.74287300;11.63683300;2023-05-29T12:14:01;26.50;11.60
2767;DHT22;1391;46.74287300;11.63683300;2023-05-29T12:16:31;26.40;10.80
2767;DHT22;1391;46.74287300;11.63683300;2023-05-29T12:19:00;26.70;11.50
2767;DHT22;1391;46.74287300;11.63683300;2023-05-29T12:21:27;26.40;9.80
2767;DHT22;1391;46.74287300;11.63683300;2023-05-29T12:23:56;26.30;10.80
2767;DHT22;1391;46.74287300;11.63683300;2023-05-29T12:26:24;25.40;11.70
2767;DHT22;1391;46.74287300;11.63683300;2023-05-29T12:28:52;25.40;17.10
2767;DHT22;1391;46.74287300;11.63683300;2023-05-29T12:31:28;25.30;14.00
2767;DHT22;1391;46.74287300;11.63683300;2023-05-29T12:34:00;25.30;13.30
2767;DHT22;1391;46.74287300;11.63683300;2023-05-29T12:36:28;25.20;12.60
2767;DHT22;1391;46.74287300;11.63683300;2023-05-29T12:38:57;25.30;13.20
2767;DHT22;1391;46.74287300;11.63683300;2023-05-29T12:41:27;25.20;12.80
2767;DHT22;1391;46.74287300;11.63683300;2023-05-29T12:43:56;25.30;15.10
2767;DHT22;1391;46.74287300;11.63683300;2023-05-29T12:46:24;24.60;17.40
2767;DHT22;1391;46.74287300;11.63683300;2023-05-29T12:48:53;24.60;23.40
2767;DHT22;1391;46.74287300;11.63683300;2023-05-29T12:51:26;24.70;17.50
2767;DHT22;1391;46.74287300;11.63683300;2023-05-29T12:53:54;25.30;16.50
2767;DHT22;1391;46.74287300;11.63683300;2023-05-29T12:56:24;25.30;11.20
2767;DHT22;1391;46.74287300;11.63683300;2023-05-29T12:58:53;25.30;12.00
2767;DHT22;1391;46.74287300;11.63683300;2023-05-29T13:01:23;24.70;10.10
2767;DHT22;1391;46.74287300;11.63683300;2023-05-29T13:03:50;25.20;10.00
2767;DHT22;1391;46.74287300;11.63683300;2023-05-29T13:06:18;24.80;7.40
2767;DHT22;1391;46.74287300;11.63683300;2023-05-29T13:08:47;25.40;13.00
2767;DHT22;1391;46.74287300;11.63683300;2023-05-29T13:11:14;25.30;7.90
2767;DHT22;1391;46.74287300;11.63683300;2023-05-29T13:13:43;25.30;11.90
2767;DHT22;1391;46.74287300;11.63683300;2023-05-29T13:16:10;25.20;13.30
2767;DHT22;1391;46.74287300;11.63683300;2023-05-29T13:18:38;25.20;10.60
2767;DHT22;1391;46.74287300;11.63683300;2023-05-29T13:21:05;25.40;9.50
2767;DHT22;1391;46.74287300;11.63683300;2023-05-29T13:23:32;25.20;11.70
2767;DHT22;1391;46.74287300;11.63683300;2023-05-29T13:26:00;25.40;17.70
2767;DHT22;1391;46.74287300;11.63683300;2023-05-29T13:28:33;25.20;11.40
2767;DHT22;1391;46.74287300;11.63683300;2023-05-29T13:31:02;25.20;14.20
2767;DHT22;1391;46.74287300;11.63683300;2023-05-29T13:33:31;25.20;14.10
2767;DHT22;1391;46.74287300;11.63683300;2023-05-29T13:35:58;25.00;15.20
2767;DHT22;1391;46.74287300;11.63683300;2023-05-29T13:38:25;25.00;14.60
2767;DHT22;1391;46.74287300;11.63683300;2023-05-29T13:40:54;25.10;16.10
2767;DHT22;1391;46.74287300;11.63683300;2023-05-29T13:43:21;24.50;13.10
2767;DHT22;1391;46.74287300;11.63683300;2023-05-29T13:45:50;25.10;16.80